Time;durP1;ratioP1;P1;durP2;ratioP2;P2;SDS_P1;SDS_P2;PMS_P1;PMS_P2;Temp;Humidity;BMP_temperature;BMP_pressure;BME280_temperature;BME280_humidity;BME280_pressure;Samples;Min_cycle;Max_cycle;Signal;HPM_P1;HPM_P2
2022/01/21 00:00:18;;;;;;;7.82;3.13;;;;;;;2.26;69.63;100320.72;2624192;54;20027;-69
2022/01/21 00:02:48;;;;;;;8.93;3.63;;;;;;;2.25;69.44;100324.25;2623974;54;20054;-69
2022/01/21 00:05:20;;;;;;;8.20;3.13;;;;;;;2.28;69.55;100321.41;2623724;54;20082;-68
2022/01/21 00:07:53;;;;;;;6.53;3.03;;;;;;;2.27;69.30;100319.75;2624115;54;20034;-69
2022/01/21 00:10:22;;;;;;;11.35;3.63;;;;;;;2.32;69.30;100325.50;2624490;54;20613;-70
2022/01/21 00:12:53;;;;;;;8.48;3.20;;;;;;;2.32;69.28;100325.50;2624459;54;20031;-69
2022/01/21 00:15:23;;;;;;;10.20;3.28;;;;;;;2.39;68.95;100322.38;2624135;54;20577;-69
2022/01/21 00:17:52;;;;;;;10.73;3.22;;;;;;;2.42;69.52;100326.56;2624288;54;20064;-69
2022/01/21 00:31:13;;;;;;;7.50;3.08;;;;;;;2.45;68.37;100323.75;2618853;54;20086;-68
2022/01/21 00:33:42;;;;;;;8.13;2.78;;;;;;;2.41;68.29;100315.28;2623975;54;20084;-68
2022/01/21 00:36:13;;;;;;;7.93;3.67;;;;;;;2.45;68.55;100318.53;2623254;54;20027;-68
2022/01/21 00:38:45;;;;;;;9.20;2.65;;;;;;;2.43;67.98;100323.84;2623909;54;20022;-68
2022/01/21 00:41:21;;;;;;;16.70;3.33;;;;;;;2.38;68.26;100318.09;2623404;47;20070;-68
2022/01/21 00:43:51;;;;;;;8.85;2.55;;;;;;;2.33;68.13;100317.59;2623452;47;20030;-68
2022/01/21 00:46:21;;;;;;;10.57;2.97;;;;;;;2.38;68.22;100319.88;2623131;47;20042;-68
2022/01/21 00:48:51;;;;;;;14.50;3.63;;;;;;;2.38;67.93;100325.94;2624546;39;20575;-68
2022/01/21 00:51:21;;;;;;;7.78;3.20;;;;;;;2.39;68.09;100324.16;2625117;54;20030;-69
2022/01/21 00:53:53;;;;;;;8.02;3.10;;;;;;;2.38;68.27;100318.09;2625226;54;20034;-69
2022/01/21 00:56:23;;;;;;;10.45;4.07;;;;;;;2.43;68.36;100338.66;2624159;47;20658;-71
2022/01/21 00:58:53;;;;;;;9.82;3.47;;;;;;;2.49;68.38;100335.66;2625527;47;20136;-69
2022/01/21 01:01:24;;;;;;;11.30;3.35;;;;;;;2.52;68.38;100330.22;2624330;54;20062;-69
2022/01/21 01:03:54;;;;;;;8.15;3.05;;;;;;;2.53;68.08;100334.53;2624202;39;20442;-69
2022/01/21 01:06:24;;;;;;;10.50;3.22;;;;;;;2.54;68.07;100330.97;2624929;54;20605;-69
2022/01/21 01:08:57;;;;;;;8.00;3.25;;;;;;;2.51;68.14;100343.38;2625317;39;20430;-69
2022/01/21 01:11:33;;;;;;;11.68;2.92;;;;;;;2.44;68.17;100329.91;2625137;54;20034;-69
2022/01/21 01:22:09;;;;;;;10.10;2.85;;;;;;;2.20;68.42;100337.59;2625171;47;20038;-69
2022/01/21 01:27:41;;;;;;;9.35;2.65;;;;;;;2.02;68.42;100331.00;2625177;47;20031;-69
2022/01/21 01:30:14;;;;;;;9.77;2.67;;;;;;;1.98;68.76;100343.38;2625567;54;20561;-69
2022/01/21 01:32:47;;;;;;;7.35;2.75;;;;;;;1.94;69.15;100339.31;2625926;54;20034;-69
2022/01/21 01:35:20;;;;;;;9.60;2.97;;;;;;;1.89;69.19;100337.00;2625663;54;20628;-69
2022/01/21 01:38:12;;;;;;;11.23;3.33;;;;;;;1.89;69.21;100359.66;2625407;54;20552;-69
2022/01/21 01:40:48;;;;;;;9.85;2.90;;;;;;;1.83;68.76;100370.44;2625387;54;20038;-69
2022/01/21 01:51:29;;;;;;;10.43;3.10;;;;;;;1.65;69.91;100382.91;2625663;39;20708;-69
2022/01/21 01:54:04;;;;;;;9.77;3.55;;;;;;;1.65;70.06;100375.91;2625389;54;20038;-68
2022/01/21 01:56:41;;;;;;;10.07;3.05;;;;;;;1.68;70.03;100373.13;2627645;39;20644;-67
2022/01/21 01:59:11;;;;;;;12.52;3.17;;;;;;;1.65;69.98;100367.25;2624749;51;20082;-68
2022/01/21 02:01:41;;;;;;;12.02;3.22;;;;;;;1.67;70.25;100360.16;2625419;54;20033;-68
2022/01/21 02:04:11;;;;;;;8.52;3.15;;;;;;;1.68;70.31;100354.88;2625343;54;20635;-68
2022/01/21 02:06:41;;;;;;;8.73;2.90;;;;;;;1.68;70.40;100360.09;2625164;54;20033;-67
2022/01/21 02:09:10;;;;;;;8.32;3.00;;;;;;;1.66;70.55;100354.13;2624459;51;20022;-70
2022/01/21 02:11:43;;;;;;;8.00;3.40;;;;;;;1.66;70.31;100364.53;2625776;54;20038;-68
2022/01/21 02:14:16;;;;;;;7.50;2.83;;;;;;;1.62;70.42;100357.03;2624015;54;20035;-70
2022/01/21 02:17:11;;;;;;;;;;;;;;;1.60;70.74;100359.75;2625699;39;20467;-68
2022/01/21 02:22:32;;;;;;;10.98;3.45;;;;;;;1.59;70.68;100355.47;2626402;39;20473;-68
2022/01/21 02:25:15;;;;;;;9.70;3.08;;;;;;;1.60;70.72;100359.75;2626236;54;20541;-68
2022/01/21 02:27:47;;;;;;;6.40;3.08;;;;;;;1.52;70.69;100364.59;2625720;54;20025;-69
2022/01/21 02:30:22;;;;;;;13.13;3.47;;;;;;;1.51;71.21;100362.06;2627531;39;20442;-68
2022/01/21 02:32:56;;;;;;;7.72;2.80;;;;;;;1.53;71.00;100363.66;2625267;47;20045;-69
2022/01/21 02:35:27;;;;;;;7.03;2.83;;;;;;;1.51;70.82;100372.50;2625717;54;20157;-68
2022/01/21 02:38:01;;;;;;;10.63;3.03;;;;;;;1.55;71.21;100372.22;2626479;39;20450;-69
2022/01/21 02:40:30;;;;;;;9.53;3.13;;;;;;;1.57;71.03;100372.97;2625926;39;20447;-68
2022/01/21 02:43:00;;;;;;;11.40;2.97;;;;;;;1.61;71.05;100371.00;2625794;54;20564;-68
2022/01/21 02:45:31;;;;;;;8.45;2.80;;;;;;;1.61;71.16;100369.22;2625577;39;20411;-68
2022/01/21 02:48:02;;;;;;;9.68;3.15;;;;;;;1.60;71.20;100379.75;2625424;54;20086;-68
2022/01/21 02:50:32;;;;;;;12.70;3.67;;;;;;;1.57;71.31;100374.72;2625807;54;20022;-68
2022/01/21 02:53:22;;;;;;;12.90;3.17;;;;;;;1.47;71.71;100379.69;2625829;47;20037;-69
2022/01/21 02:55:53;;;;;;;13.32;3.22;;;;;;;1.40;71.64;100388.81;2624583;50;20653;-68
2022/01/21 02:58:24;;;;;;;8.80;2.97;;;;;;;1.40;71.59;100396.63;2624061;47;20030;-68
2022/01/21 03:00:54;;;;;;;8.00;2.97;;;;;;;1.38;71.90;100388.91;2623670;54;20023;-68
2022/01/21 03:03:24;;;;;;;12.13;3.40;;;;;;;1.38;71.69;100391.50;2622517;47;20019;-68
2022/01/21 03:05:55;;;;;;;10.77;3.30;;;;;;;1.35;71.52;100381.28;2622430;39;20421;-69
2022/01/21 03:08:29;;;;;;;12.07;3.67;;;;;;;1.31;71.80;100382.41;2622158;47;20041;-69
2022/01/21 03:10:58;;;;;;;10.98;4.00;;;;;;;1.24;71.69;100375.91;2623990;54;20568;-69
2022/01/21 03:13:28;;;;;;;8.20;3.17;;;;;;;1.13;71.60;100375.72;2623954;47;20031;-69
2022/01/21 03:15:58;;;;;;;8.07;3.50;;;;;;;1.13;72.13;100373.09;2623637;46;20026;-70
2022/01/21 03:18:27;;;;;;;14.50;3.50;;;;;;;1.18;72.23;100376.25;2621313;54;20046;-69
2022/01/21 03:20:57;;;;;;;10.40;3.40;;;;;;;1.13;72.41;100376.56;2621530;54;20034;-69
2022/01/21 03:23:30;;;;;;;12.68;3.30;;;;;;;1.15;72.46;100371.25;2623978;54;20034;-70
2022/01/21 03:26:00;;;;;;;12.05;3.58;;;;;;;1.15;72.73;100372.09;2622165;54;20031;-69
2022/01/21 03:28:51;;;;;;;12.30;3.63;;;;;;;1.20;72.66;100379.63;2622768;54;20167;-69
2022/01/21 03:31:21;;;;;;;8.93;3.22;;;;;;;1.20;72.22;100387.44;2621468;51;20106;-69
2022/01/21 03:33:51;;;;;;;10.25;4.38;;;;;;;1.16;72.24;100388.56;2623386;54;20650;-69
2022/01/21 03:36:22;;;;;;;9.13;3.63;;;;;;;1.16;72.77;100389.41;2626343;31;20487;-69
2022/01/21 03:38:55;;;;;;;10.52;3.60;;;;;;;1.18;72.47;100397.09;2623811;47;20077;-70
2022/01/21 03:41:25;;;;;;;11.20;4.05;;;;;;;1.21;72.50;100397.75;2623827;48;20035;-70
2022/01/21 03:43:55;;;;;;;8.48;2.95;;;;;;;1.21;72.72;100395.16;2625187;39;20434;-70
2022/01/21 03:46:25;;;;;;;9.05;3.55;;;;;;;1.17;72.29;100390.22;2622308;54;20022;-69
2022/01/21 03:48:55;;;;;;;12.82;3.65;;;;;;;1.14;72.75;100398.22;2622236;54;20042;-69
2022/01/21 03:51:25;;;;;;;7.15;3.80;;;;;;;1.13;72.24;100401.75;2624542;39;20443;-68
2022/01/21 03:53:57;;;;;;;11.05;4.20;;;;;;;1.07;72.43;100402.97;2623770;47;20033;-69
2022/01/21 03:56:30;;;;;;;14.27;3.97;;;;;;;1.04;72.63;100404.94;2623504;47;20022;-69
2022/01/21 03:59:01;;;;;;;10.40;3.65;;;;;;;1.03;72.78;100406.69;2623416;47;20030;-70
2022/01/21 04:01:31;;;;;;;12.25;4.00;;;;;;;1.01;72.67;100407.72;2624020;46;20042;-70
2022/01/21 04:04:01;;;;;;;8.52;3.70;;;;;;;0.98;72.89;100413.97;2623384;47;20046;-70
2022/01/21 04:06:31;;;;;;;8.60;3.47;;;;;;;1.03;72.90;100424.09;2623837;54;20143;-69
2022/01/21 04:09:04;;;;;;;11.38;3.80;;;;;;;1.05;73.20;100417.00;2623183;47;20562;-70
2022/01/21 04:11:33;;;;;;;9.35;3.72;;;;;;;1.02;72.92;100420.66;2623775;54;20042;-71
2022/01/21 04:14:03;;;;;;;15.38;3.90;;;;;;;1.07;72.80;100431.63;2623617;46;20031;-69
2022/01/21 04:16:33;;;;;;;9.32;3.60;;;;;;;1.10;73.10;100425.38;2623541;47;20074;-69
2022/01/21 04:19:03;;;;;;;17.52;4.05;;;;;;;1.07;72.72;100421.22;2623875;47;20022;-68
2022/01/21 04:21:33;;;;;;;8.43;3.63;;;;;;;1.09;72.88;100418.50;2624091;54;20041;-70
2022/01/21 04:24:08;;;;;;;15.05;4.13;;;;;;;1.08;72.91;100417.66;2623126;54;20082;-68
2022/01/21 04:26:41;;;;;;;15.77;4.53;;;;;;;1.08;73.35;100424.66;2623722;54;20026;-68
2022/01/21 04:29:15;;;;;;;12.30;3.85;;;;;;;1.10;73.21;100420.16;2623984;54;20034;-70
2022/01/21 04:31:52;;;;;;;10.13;3.63;;;;;;;1.14;73.05;100422.53;2623887;54;20035;-70
2022/01/21 04:34:27;;;;;;;11.63;3.75;;;;;;;1.20;73.20;100418.69;2623425;54;20023;-68
2022/01/21 04:36:56;;;;;;;11.70;3.70;;;;;;;1.19;73.20;100412.66;2623808;54;20041;-68
2022/01/21 04:39:39;;;;;;;17.63;4.90;;;;;;;1.23;73.28;100408.09;2623715;54;20028;-69
2022/01/21 04:47:38;;;;;;;9.98;4.05;;;;;;;1.15;73.11;100418.97;2623338;54;20030;-68
2022/01/21 04:50:13;;;;;;;7.07;3.63;;;;;;;1.10;73.00;100426.25;2619977;54;20111;-69
2022/01/21 04:52:47;;;;;;;15.65;4.40;;;;;;;1.14;73.21;100430.34;2620528;47;20037;-69
2022/01/21 04:55:35;;;;;;;9.50;4.03;;;;;;;1.13;72.95;100430.41;2621066;54;20026;-69
2022/01/21 04:58:05;;;;;;;8.93;3.83;;;;;;;1.15;73.00;100431.19;2622683;54;20045;-69
2022/01/21 05:00:35;;;;;;;8.68;3.92;;;;;;;1.15;73.03;100432.00;2622216;54;20042;-70
2022/01/21 05:03:06;;;;;;;15.63;4.68;;;;;;;1.14;72.91;100432.94;2623973;47;20142;-68
2022/01/21 05:05:36;;;;;;;13.52;3.88;;;;;;;1.13;73.32;100422.59;2626120;47;20030;-68
2022/01/21 05:08:10;;;;;;;17.00;4.70;;;;;;;1.16;73.13;100428.47;2625026;54;20057;-68
2022/01/21 05:10:42;;;;;;;12.32;4.55;;;;;;;1.13;72.94;100433.03;2621961;47;20022;-68
2022/01/21 05:13:15;;;;;;;12.05;4.72;;;;;;;1.10;73.05;100431.47;2621835;39;20421;-68
2022/01/21 05:16:00;;;;;;;11.30;4.68;;;;;;;1.08;72.86;100427.25;2622889;51;20150;-70
2022/01/21 05:18:31;;;;;;;9.60;4.32;;;;;;;1.06;73.25;100429.97;2617204;54;20077;-64
2022/01/21 05:21:28;;;;;;;15.05;5.32;;;;;;;1.05;73.10;100432.66;2617798;54;20037;-64
2022/01/21 05:24:09;;;;;;;13.57;4.88;;;;;;;1.09;73.03;100431.53;2617724;54;20054;-63
2022/01/21 05:26:52;;;;;;;9.63;4.28;;;;;;;1.10;73.04;100426.25;2617707;54;20034;-64
2022/01/21 05:29:24;;;;;;;9.93;4.57;;;;;;;1.14;73.50;100435.56;2617499;47;20035;-64
2022/01/21 05:32:03;;;;;;;13.15;4.35;;;;;;;1.08;72.80;100443.72;2617577;54;20035;-64
2022/01/21 05:34:40;;;;;;;16.50;6.90;;;;;;;0.93;73.33;100440.25;2617631;47;20022;-65
2022/01/21 05:37:20;;;;;;;12.93;5.18;;;;;;;0.96;73.73;100440.06;2617216;54;20152;-62
2022/01/21 05:40:17;;;;;;;15.05;6.30;;;;;;;1.02;73.58;100451.06;2617487;51;20050;-63
2022/01/21 05:43:08;;;;;;;12.07;5.25;;;;;;;1.06;73.71;100457.75;2618229;54;20553;-63
2022/01/21 05:48:57;;;;;;;13.30;5.47;;;;;;;1.14;73.50;100468.56;2618640;39;20409;-64
2022/01/21 05:51:45;;;;;;;10.23;4.57;;;;;;;1.25;72.79;100463.53;2618214;54;20069;-64
2022/01/21 05:54:25;;;;;;;10.10;5.38;;;;;;;1.27;73.34;100456.47;2617777;54;20035;-65
2022/01/21 05:57:14;;;;;;;10.35;4.32;;;;;;;1.31;72.85;100464.97;2617130;54;20034;-63
2022/01/21 05:59:51;;;;;;;15.13;5.32;;;;;;;1.24;72.84;100465.31;2617498;47;20030;-64
2022/01/21 06:02:21;;;;;;;21.17;6.40;;;;;;;1.29;72.70;100467.63;2617725;54;20030;-64
2022/01/21 06:04:51;;;;;;;14.25;4.55;;;;;;;1.38;72.65;100468.84;2617339;54;20143;-64
2022/01/21 06:07:21;;;;;;;10.43;5.00;;;;;;;1.43;72.68;100464.22;2618740;54;20086;-63
2022/01/21 06:09:50;;;;;;;11.05;4.60;;;;;;;1.47;72.42;100463.09;2621284;54;20034;-63
2022/01/21 06:12:20;;;;;;;12.07;4.55;;;;;;;1.43;72.42;100464.22;2620687;47;20030;-65
2022/01/21 06:14:53;;;;;;;13.73;5.40;;;;;;;1.39;72.04;100468.78;2620357;54;20557;-63
2022/01/21 06:17:22;;;;;;;13.05;6.20;;;;;;;1.36;72.79;100463.72;2620351;54;20038;-65
2022/01/21 06:19:52;;;;;;;12.82;5.32;;;;;;;1.32;72.34;100470.06;2618674;54;20030;-63
2022/01/21 06:22:21;;;;;;;13.50;4.90;;;;;;;1.31;72.40;100473.59;2618820;54;20110;-64
2022/01/21 06:24:53;;;;;;;12.55;5.13;;;;;;;1.33;72.41;100479.53;2618545;46;20054;-66
2022/01/21 06:27:26;;;;;;;11.63;4.90;;;;;;;1.40;72.33;100487.84;2618808;39;20200;-63
2022/01/21 06:29:59;;;;;;;11.23;4.75;;;;;;;1.40;72.16;100485.25;2618706;54;20530;-64
2022/01/21 06:32:28;;;;;;;15.98;6.43;;;;;;;1.37;72.56;100482.81;2620932;54;20023;-65
2022/01/21 06:35:01;;;;;;;13.77;5.20;;;;;;;1.42;72.10;100478.97;2620603;47;20070;-64
2022/01/21 06:37:32;;;;;;;11.13;5.40;;;;;;;1.42;72.42;100473.78;2620796;54;20104;-65
2022/01/21 06:40:02;;;;;;;10.98;5.05;;;;;;;1.43;72.77;100479.84;2619463;54;20082;-63
2022/01/21 06:42:31;;;;;;;16.02;6.32;;;;;;;1.46;72.19;100487.47;2619648;54;20554;-65
2022/01/21 06:45:04;;;;;;;13.48;5.10;;;;;;;1.48;72.44;100491.66;2623313;54;20027;-64
2022/01/21 06:47:33;;;;;;;12.88;5.70;;;;;;;1.48;72.73;100485.59;2624038;54;20043;-65
2022/01/21 06:50:03;;;;;;;10.15;5.35;;;;;;;1.54;72.25;100495.66;2623726;54;20026;-63
2022/01/21 06:52:33;;;;;;;11.98;5.40;;;;;;;1.57;72.17;100492.84;2622642;54;20037;-66
2022/01/21 06:55:04;;;;;;;22.55;8.43;;;;;;;1.61;72.07;100496.13;2622857;54;20542;-64
2022/01/21 06:57:37;;;;;;;18.38;5.20;;;;;;;1.63;72.21;100505.53;2621949;54;20037;-64
2022/01/21 07:00:13;;;;;;;18.75;5.72;;;;;;;1.61;71.95;100517.81;2622293;54;20074;-63
2022/01/21 07:02:43;;;;;;;13.77;4.97;;;;;;;1.64;72.18;100519.41;2621048;54;20030;-63
2022/01/21 07:05:12;;;;;;;14.27;5.63;;;;;;;1.65;72.07;100521.91;2618837;54;20098;-63
2022/01/21 07:07:42;;;;;;;12.23;4.93;;;;;;;1.68;71.81;100526.09;2618707;54;20149;-63
2022/01/21 07:10:14;;;;;;;12.25;4.95;;;;;;;1.69;71.93;100522.56;2618704;54;20031;-63
2022/01/21 07:12:45;;;;;;;12.75;5.63;;;;;;;1.68;72.11;100523.50;2618618;54;20042;-63
2022/01/21 07:15:19;;;;;;;12.70;5.22;;;;;;;1.70;71.76;100524.22;2618584;54;20074;-63
2022/01/21 07:17:52;;;;;;;13.30;5.50;;;;;;;1.67;71.94;100527.00;2618379;54;20042;-64
2022/01/21 07:20:23;;;;;;;12.05;5.40;;;;;;;1.60;72.12;100530.94;2618444;54;20030;-64
2022/01/21 07:22:52;;;;;;;11.43;4.93;;;;;;;1.59;71.79;100539.69;2617520;54;20042;-64
2022/01/21 07:25:22;;;;;;;12.38;5.80;;;;;;;1.51;71.63;100541.91;2618524;54;20125;-64
2022/01/21 07:27:52;;;;;;;12.80;4.50;;;;;;;1.49;72.16;100540.25;2618051;54;20026;-64
2022/01/21 07:30:25;;;;;;;12.10;5.25;;;;;;;1.53;72.08;100527.03;2618347;54;20034;-64
2022/01/21 07:32:54;;;;;;;12.13;4.63;;;;;;;1.59;72.01;100526.66;2618373;47;20031;-63
2022/01/21 07:35:24;;;;;;;22.52;7.05;;;;;;;1.62;71.79;100522.09;2618427;54;20042;-64
2022/01/21 07:38:11;;;;;;;17.15;7.80;;;;;;;1.63;71.72;100528.13;2618139;54;20597;-65
2022/01/21 07:40:41;;;;;;;20.00;8.38;;;;;;;1.65;72.07;100529.72;2618424;54;20041;-64
2022/01/21 07:43:11;;;;;;;14.68;6.03;;;;;;;1.65;71.94;100526.28;2618324;54;20597;-64
2022/01/21 07:45:43;;;;;;;18.40;5.70;;;;;;;1.67;71.38;100527.88;2618276;54;20046;-64
2022/01/21 07:48:13;;;;;;;15.60;5.97;;;;;;;1.57;71.60;100526.75;2618164;54;20041;-64
2022/01/21 07:50:43;;;;;;;11.98;4.68;;;;;;;1.54;71.38;100520.88;2620706;54;20031;-64
2022/01/21 07:53:12;;;;;;;14.63;5.15;;;;;;;1.50;71.91;100535.84;2622111;54;20030;-64
2022/01/21 07:55:44;;;;;;;12.82;4.60;;;;;;;1.55;71.76;100536.44;2617653;47;20086;-64
2022/01/21 07:58:14;;;;;;;12.70;4.63;;;;;;;1.59;71.80;100537.94;2617554;47;20061;-64
2022/01/21 08:00:46;;;;;;;10.48;4.93;;;;;;;1.57;72.11;100537.19;2618154;54;20045;-63
2022/01/21 08:03:16;;;;;;;12.38;4.70;;;;;;;1.60;71.70;100530.94;2618960;31;20523;-64
2022/01/21 08:05:46;;;;;;;13.65;5.65;;;;;;;1.59;71.85;100535.31;2618481;54;20142;-64
2022/01/21 08:08:16;;;;;;;15.98;5.53;;;;;;;1.64;71.77;100535.03;2618277;54;20047;-63
2022/01/21 08:10:46;;;;;;;22.23;5.38;;;;;;;1.64;71.40;100528.06;2618315;54;20039;-64
2022/01/21 08:13:15;;;;;;;12.45;4.50;;;;;;;1.65;71.37;100539.31;2622156;54;20074;-64
2022/01/21 08:15:47;;;;;;;13.73;4.88;;;;;;;1.61;71.17;100537.84;2623243;54;20026;-64
2022/01/21 08:18:17;;;;;;;15.18;4.28;;;;;;;1.56;71.31;100543.31;2623911;39;20463;-63
2022/01/21 08:20:47;;;;;;;10.57;4.18;;;;;;;1.60;71.75;100543.97;2622518;54;20165;-63
2022/01/21 08:23:17;;;;;;;11.05;3.95;;;;;;;1.59;71.26;100544.88;2622473;47;20067;-62
2022/01/21 08:25:47;;;;;;;15.20;5.43;;;;;;;1.54;71.37;100542.56;2623234;54;20577;-63
2022/01/21 08:28:17;;;;;;;12.05;4.70;;;;;;;1.57;71.53;100545.00;2622696;54;20038;-66
2022/01/21 08:30:49;;;;;;;12.98;4.18;;;;;;;1.63;71.34;100543.78;2622903;54;20042;-63
2022/01/21 08:33:20;;;;;;;12.35;4.10;;;;;;;1.62;71.73;100535.13;2619444;46;20046;-63
2022/01/21 08:35:49;;;;;;;17.77;4.47;;;;;;;1.66;71.39;100533.16;2618201;54;20082;-63
2022/01/21 08:38:21;;;;;;;14.25;4.72;;;;;;;1.61;71.44;100536.06;2618215;54;20069;-62
2022/01/21 08:40:52;;;;;;;13.95;3.92;;;;;;;1.68;71.48;100546.97;2618622;39;20489;-63
2022/01/21 08:43:21;;;;;;;15.68;4.60;;;;;;;1.74;71.65;100546.56;2618242;54;20045;-63
2022/01/21 08:45:53;;;;;;;9.68;4.10;;;;;;;1.88;71.42;100545.75;2618070;54;20065;-63
2022/01/21 08:48:23;;;;;;;15.13;4.32;;;;;;;1.91;71.09;100554.19;2618266;54;20044;-63
2022/01/21 08:50:55;;;;;;;10.00;3.88;;;;;;;1.99;71.09;100554.56;2618429;54;20098;-63
2022/01/21 08:56:10;;;;;;;13.15;3.85;;;;;;;2.01;70.93;100561.47;2619243;54;20059;-63
2022/01/21 08:58:40;;;;;;;17.90;4.27;;;;;;;2.06;71.01;100565.47;2618667;54;20056;-63
2022/01/21 09:01:14;;;;;;;13.07;4.10;;;;;;;2.12;70.97;100551.19;2617919;47;20034;-63
2022/01/21 09:03:44;;;;;;;10.00;3.63;;;;;;;2.20;70.79;100562.84;2618643;39;20433;-64
2022/01/21 09:06:18;;;;;;;13.48;4.20;;;;;;;2.25;70.99;100565.16;2617286;47;20034;-64
2022/01/21 09:08:48;;;;;;;13.10;4.47;;;;;;;2.39;70.96;100564.28;2617956;54;20147;-64
2022/01/21 09:11:18;;;;;;;17.45;4.30;;;;;;;2.47;70.59;100562.84;2617756;47;20065;-63
2022/01/21 09:13:48;;;;;;;10.60;3.83;;;;;;;2.48;70.49;100559.31;2618084;54;20038;-62
2022/01/21 09:16:20;;;;;;;8.13;3.33;;;;;;;2.52;70.45;100559.13;2618523;54;20038;-64
2022/01/21 09:18:51;;;;;;;12.98;4.47;;;;;;;2.50;70.01;100561.84;2618107;54;20038;-64
2022/01/21 09:21:38;;;;;;;15.23;6.05;;;;;;;2.58;69.92;100561.34;2618021;54;20038;-64
2022/01/21 09:24:08;;;;;;;42.42;21.27;;;;;;;2.60;70.02;100568.13;2618152;54;20034;-64
2022/01/21 09:26:38;;;;;;;11.95;5.43;;;;;;;2.61;69.54;100574.19;2617963;54;20052;-63
2022/01/21 09:29:08;;;;;;;14.55;5.55;;;;;;;2.63;69.71;100581.00;2618422;54;20031;-64
2022/01/21 09:31:43;;;;;;;17.35;5.60;;;;;;;2.76;70.22;100578.44;2618538;54;20581;-65
2022/01/21 09:34:30;;;;;;;15.50;5.03;;;;;;;2.81;69.43;100578.97;2618761;39;20419;-64
2022/01/21 09:37:01;;;;;;;10.48;4.60;;;;;;;2.72;69.53;100583.00;2617966;54;20034;-64
2022/01/21 09:39:33;;;;;;;14.23;4.97;;;;;;;2.73;69.62;100584.72;2618563;54;20573;-64
2022/01/21 09:42:06;;;;;;;12.45;3.92;;;;;;;2.74;69.85;100575.09;2618414;54;20046;-65
2022/01/21 09:44:38;;;;;;;14.70;4.13;;;;;;;2.82;69.76;100578.03;2618165;54;20550;-65
2022/01/21 09:47:12;;;;;;;7.72;2.65;;;;;;;2.68;69.59;100571.09;2618476;54;20050;-64
2022/01/21 09:49:42;;;;;;;10.45;3.10;;;;;;;2.73;69.62;100574.25;2618967;54;20054;-63
2022/01/21 09:52:16;;;;;;;12.20;3.60;;;;;;;2.90;69.35;100577.56;2618389;47;20078;-63
2022/01/21 09:54:48;;;;;;;11.35;3.92;;;;;;;3.06;69.11;100574.75;2618729;54;20589;-63
2022/01/21 09:57:22;;;;;;;10.43;4.15;;;;;;;3.04;69.07;100568.78;2618443;54;20113;-63
2022/01/21 09:59:55;;;;;;;19.48;4.28;;;;;;;3.10;68.88;100573.59;2618143;54;20071;-63
2022/01/21 10:02:30;;;;;;;17.73;4.43;;;;;;;3.18;68.65;100573.94;2618106;47;20044;-63
2022/01/21 10:05:01;;;;;;;14.20;3.63;;;;;;;3.24;68.69;100576.16;2618588;54;20026;-63
2022/01/21 10:07:34;;;;;;;14.68;4.78;;;;;;;3.22;68.77;100578.88;2618449;54;20034;-63
2022/01/21 10:10:08;;;;;;;13.93;4.43;;;;;;;3.28;68.47;100585.47;2618483;54;20577;-63
2022/01/21 10:12:50;;;;;;;16.35;4.93;;;;;;;3.27;68.42;100583.78;2618710;54;20037;-63
2022/01/21 10:15:20;;;;;;;16.23;4.60;;;;;;;3.33;68.40;100575.53;2622895;54;20059;-63
2022/01/21 10:18:10;;;;;;;17.63;6.15;;;;;;;3.46;68.27;100576.38;2622190;54;20113;-63
2022/01/21 10:20:57;;;;;;;15.77;4.93;;;;;;;3.50;67.90;100571.78;2622578;54;20089;-64
2022/01/21 10:23:28;;;;;;;27.38;8.60;;;;;;;3.53;67.95;100570.75;2618814;54;20534;-62
2022/01/21 10:26:01;;;;;;;17.00;5.93;;;;;;;3.47;67.72;100579.84;2618548;54;20082;-62
2022/01/21 10:28:32;;;;;;;11.52;3.70;;;;;;;3.45;67.87;100572.09;2618579;54;20034;-63
2022/01/21 10:31:16;;;;;;;13.45;4.43;;;;;;;3.46;67.63;100565.06;2621223;54;20038;-64
2022/01/21 10:33:51;;;;;;;12.27;3.97;;;;;;;3.46;67.55;100573.75;2621666;54;20042;-64
2022/01/21 10:36:26;;;;;;;15.88;4.28;;;;;;;3.55;67.56;100567.09;2618673;54;20034;-63
2022/01/21 10:39:08;;;;;;;17.02;3.92;;;;;;;3.58;67.26;100574.69;2618936;54;20030;-63
2022/01/21 10:41:43;;;;;;;13.23;4.32;;;;;;;3.59;67.32;100573.78;2618306;47;20066;-62
2022/01/21 10:44:17;;;;;;;13.18;3.90;;;;;;;3.59;67.00;100576.41;2618592;54;20030;-63
2022/01/21 10:46:49;;;;;;;;;;;;;;;3.58;66.99;100573.88;2619093;39;20442;-63
2022/01/21 10:49:22;;;;;;;10.88;4.10;;;;;;;3.65;67.28;100570.72;2618608;54;19945;-64
2022/01/21 10:51:55;;;;;;;11.45;3.58;;;;;;;3.75;67.31;100570.94;2618623;54;20031;-64
2022/01/21 10:54:29;;;;;;;14.25;4.90;;;;;;;3.71;66.70;100569.47;2618720;54;20038;-63
2022/01/21 10:57:09;;;;;;;9.50;4.28;;;;;;;3.78;67.15;100560.25;2618457;54;20039;-62
2022/01/21 10:59:55;;;;;;;16.42;4.22;;;;;;;3.85;67.12;100560.69;2618694;54;20085;-63
2022/01/21 11:02:33;;;;;;;16.67;4.32;;;;;;;3.91;66.70;100566.31;2618305;54;20086;-63
2022/01/21 11:05:11;;;;;;;11.45;4.47;;;;;;;3.89;66.99;100578.69;2618684;54;20034;-62
2022/01/21 11:07:57;;;;;;;10.70;4.15;;;;;;;3.81;66.41;100562.66;2618348;54;20038;-62
2022/01/21 11:10:42;;;;;;;10.38;3.72;;;;;;;3.89;66.90;100556.91;2618482;54;20038;-63
2022/01/21 11:13:37;;;;;;;9.82;3.65;;;;;;;4.00;66.55;100556.13;2618717;54;20610;-62
2022/01/21 11:16:13;;;;;;;15.35;4.35;;;;;;;4.12;66.92;100556.13;2618580;39;20444;-63
2022/01/21 11:19:09;;;;;;;10.15;4.15;;;;;;;4.26;66.65;100559.56;2622912;54;20046;-69
2022/01/21 11:21:47;;;;;;;15.10;4.68;;;;;;;4.22;66.47;100566.78;2623324;51;20042;-67
2022/01/21 11:24:19;;;;;;;10.45;4.80;;;;;;;4.40;66.02;100562.00;2624707;54;20026;-68
2022/01/21 11:27:10;;;;;;;19.17;5.13;;;;;;;4.46;65.87;100562.41;2625354;54;20047;-69
2022/01/21 11:29:41;;;;;;;12.32;4.40;;;;;;;4.40;65.77;100560.22;2625121;54;20039;-68
2022/01/21 11:32:11;;;;;;;9.25;4.22;;;;;;;4.34;66.17;100560.69;2625163;54;20027;-68
2022/01/21 11:34:42;;;;;;;14.15;4.10;;;;;;;4.25;65.97;100563.13;2625195;54;20037;-69
2022/01/21 11:37:14;;;;;;;11.05;3.70;;;;;;;4.14;65.89;100553.41;2624687;47;20724;-69
2022/01/21 11:39:45;;;;;;;13.00;4.75;;;;;;;4.11;66.20;100562.28;2625144;54;20039;-69
2022/01/21 11:42:16;;;;;;;16.80;5.80;;;;;;;4.04;65.65;100558.47;2624446;54;20027;-70
2022/01/21 11:44:52;;;;;;;14.40;5.28;;;;;;;4.06;65.88;100556.56;2624848;54;20699;-70
2022/01/21 11:47:48;;;;;;;14.55;4.97;;;;;;;4.12;65.98;100547.44;2624626;54;20034;-70
2022/01/21 11:50:21;;;;;;;14.32;4.05;;;;;;;4.20;65.45;100550.34;2624750;47;20038;-69
2022/01/21 11:52:53;;;;;;;14.05;3.58;;;;;;;4.33;65.79;100539.84;2624762;54;20022;-69
2022/01/21 11:55:33;;;;;;;15.10;4.13;;;;;;;4.27;64.95;100540.28;2625298;54;20027;-70
2022/01/21 11:58:17;;;;;;;7.05;3.47;;;;;;;4.24;65.12;100538.69;2624458;39;20463;-69
2022/01/21 12:00:48;;;;;;;10.93;3.50;;;;;;;4.28;65.47;100539.31;2624218;54;20038;-69
2022/01/21 12:03:21;;;;;;;12.90;3.13;;;;;;;4.27;65.47;100542.88;2624154;54;20046;-71
2022/01/21 12:05:51;;;;;;;9.85;3.53;;;;;;;4.27;65.40;100543.72;2625222;39;20449;-69
2022/01/21 12:08:51;;;;;;;13.88;3.88;;;;;;;4.26;65.61;100533.38;2623670;54;20037;-69
2022/01/21 12:11:39;;;;;;;9.32;3.00;;;;;;;4.20;65.82;100535.50;2625142;54;20052;-69
2022/01/21 12:14:39;;;;;;;16.13;3.67;;;;;;;4.17;66.01;100532.25;2625134;54;20048;-69
2022/01/21 13:43:41;;;;;;;9.57;2.70;;;;;;;4.60;63.33;100485.44;2607941;54;20038;-68
2022/01/21 13:46:15;;;;;;;11.23;3.37;;;;;;;4.74;63.50;100478.38;2625904;54;20045;-68
2022/01/21 13:48:44;;;;;;;7.90;3.15;;;;;;;4.83;63.74;100494.22;2626170;54;20322;-68
2022/01/21 13:51:15;;;;;;;6.35;3.03;;;;;;;4.82;63.55;100489.94;2626165;54;20037;-68
2022/01/21 13:53:47;;;;;;;13.80;3.42;;;;;;;4.81;63.71;100490.03;2625888;54;20114;-68
2022/01/21 13:56:17;;;;;;;11.65;5.75;;;;;;;4.86;63.75;100494.00;2625543;39;20407;-68
2022/01/21 13:58:50;;;;;;;11.25;5.82;;;;;;;4.84;63.46;100495.06;2625065;54;20058;-68
2022/01/21 14:01:22;;;;;;;13.27;5.55;;;;;;;4.86;63.31;100495.78;2623992;47;20038;-69
2022/01/21 14:03:53;;;;;;;12.68;5.18;;;;;;;4.97;63.31;100503.66;2624413;54;20058;-68
2022/01/21 14:06:23;;;;;;;10.60;3.38;;;;;;;4.96;62.33;100492.34;2624560;39;20454;-68